createdAt,value
2022-08-07T00:02:40.629Z,14.50
2022-08-07T00:05:05.765Z,13.20
2022-08-07T00:07:40.361Z,15.80
2022-08-07T00:10:31.073Z,12.60
2022-08-07T00:13:17.588Z,12.40
2022-08-07T00:15:55.427Z,13.10
2022-08-07T00:18:29.651Z,12.30
2022-08-07T00:21:07.982Z,13.30
2022-08-07T00:23:40.745Z,13.30
2022-08-07T00:26:18.594Z,14.70
2022-08-07T00:29:00.066Z,15.30
2022-08-07T00:31:38.111Z,13.00
2022-08-07T00:34:10.829Z,14.50
2022-08-07T00:36:42.944Z,13.70
2022-08-07T00:42:02.065Z,13.90
2022-08-07T00:44:35.757Z,13.40
2022-08-07T00:47:26.559Z,13.10
2022-08-07T00:50:19.153Z,13.70
2022-08-07T00:52:48.728Z,16.90
2022-08-07T00:55:25.368Z,14.30
2022-08-07T00:58:07.163Z,15.80
2022-08-07T01:00:35.798Z,17.90
2022-08-07T01:03:04.604Z,15.90
2022-08-07T01:05:36.609Z,15.10
2022-08-07T01:08:09.117Z,12.30
2022-08-07T01:10:39.738Z,15.50
2022-08-07T01:13:16.609Z,13.60
2022-08-07T01:16:05.662Z,13.30
2022-08-07T01:18:37.155Z,14.20
2022-08-07T01:21:22.534Z,14.10
2022-08-07T01:23:54.810Z,15.20
2022-08-07T01:26:26.142Z,15.50
2022-08-07T01:28:55.959Z,14.10
2022-08-07T01:31:42.499Z,12.70
2022-08-07T01:34:18.951Z,12.20
2022-08-07T01:36:52.663Z,14.30
2022-08-07T01:39:39.585Z,15.30
2022-08-07T01:42:39.658Z,15.10
2022-08-07T01:45:12.803Z,14.50
2022-08-07T01:48:20.504Z,12.40
2022-08-07T01:50:40.367Z,15.20
2022-08-07T01:53:21.013Z,14.80
2022-08-07T01:56:06.800Z,18.10
2022-08-07T01:58:49.237Z,15.40
2022-08-07T02:01:59.956Z,14.00
2022-08-07T02:04:55.603Z,17.60
2022-08-07T02:07:35.808Z,13.00
2022-08-07T02:10:16.511Z,14.20
2022-08-07T02:12:50.037Z,15.40
2022-08-07T02:15:28.071Z,14.60
2022-08-07T02:17:59.932Z,14.40
2022-08-07T02:20:32.801Z,15.10
2022-08-07T02:23:06.272Z,16.20
2022-08-07T02:26:31.144Z,15.00
2022-08-07T02:28:31.638Z,16.10
2022-08-07T02:31:18.754Z,15.10
2022-08-07T02:34:11.267Z,14.30
2022-08-07T02:36:50.750Z,14.10
2022-08-07T02:39:42.443Z,15.80
2022-08-07T02:42:16.153Z,13.90
2022-08-07T02:44:50.244Z,13.30
2022-08-07T02:47:24.133Z,15.40
2022-08-07T02:50:04.636Z,15.90
2022-08-07T02:52:44.092Z,18.30
2022-08-07T02:55:28.253Z,15.90
2022-08-07T02:58:22.288Z,18.00
2022-08-07T03:01:00.110Z,15.20
2022-08-07T03:06:35.402Z,15.00
2022-08-07T03:13:49.720Z,19.10
2022-08-07T03:17:54.093Z,13.40
2022-08-07T03:20:30.231Z,16.20
2022-08-07T03:23:00.326Z,15.50
2022-08-07T03:29:00.669Z,14.10
2022-08-07T03:31:43.443Z,16.70
2022-08-07T03:34:22.826Z,16.50
2022-08-07T03:37:12.322Z,14.70
2022-08-07T03:40:15.515Z,15.60
2022-08-07T03:42:58.842Z,16.60
2022-08-07T03:45:39.610Z,15.50
2022-08-07T03:52:46.035Z,15.10
2022-08-07T03:55:57.854Z,13.30
2022-08-07T03:59:07.174Z,16.90
2022-08-07T04:01:27.393Z,16.30
2022-08-07T04:03:56.839Z,13.20
2022-08-07T04:06:37.722Z,18.80
2022-08-07T04:09:16.186Z,17.90
2022-08-07T04:12:25.548Z,16.30
2022-08-07T04:14:47.857Z,18.90
2022-08-07T04:17:23.012Z,15.20
2022-08-07T04:20:17.391Z,18.80
2022-08-07T04:22:53.664Z,19.10
2022-08-07T04:25:45.743Z,17.20
2022-08-07T04:28:23.093Z,17.60
2022-08-07T04:30:58.865Z,16.20
2022-08-07T04:33:35.280Z,36.40
2022-08-07T04:36:09.178Z,17.70
2022-08-07T04:38:39.821Z,18.50
2022-08-07T04:41:18.284Z,16.00
2022-08-07T04:44:12.515Z,15.80
2022-08-07T04:48:02.209Z,13.70
2022-08-07T04:50:52.073Z,16.10
2022-08-07T04:54:01.638Z,15.40
2022-08-07T04:58:12.970Z,15.80
2022-08-07T05:04:07.374Z,14.00
2022-08-07T05:07:55.834Z,16.40
2022-08-07T05:10:43.444Z,17.10
2022-08-07T05:14:54.050Z,13.80
2022-08-07T05:16:31.744Z,15.50
2022-08-07T05:19:12.443Z,12.00
2022-08-07T05:22:00.047Z,13.80
2022-08-07T05:24:40.664Z,14.50
2022-08-07T05:28:02.494Z,12.20
2022-08-07T05:30:04.764Z,15.00
2022-08-07T05:32:36.083Z,12.70
2022-08-07T05:35:08.866Z,14.10
2022-08-07T05:40:17.601Z,14.00
2022-08-07T05:42:54.831Z,14.90
2022-08-07T05:45:46.804Z,14.10
2022-08-07T05:48:26.732Z,16.20
2022-08-07T05:50:59.855Z,13.90
2022-08-07T05:54:13.219Z,17.90
2022-08-07T05:56:29.926Z,14.00
2022-08-07T05:59:11.122Z,15.40
2022-08-07T06:01:46.998Z,14.20
2022-08-07T06:04:22.363Z,15.00
2022-08-07T06:07:06.441Z,15.10
2022-08-07T06:10:03.785Z,15.90
2022-08-07T06:12:32.998Z,18.00
2022-08-07T06:15:03.117Z,14.40
2022-08-07T06:17:38.206Z,15.10
2022-08-07T06:20:12.648Z,19.00
2022-08-07T06:23:24.930Z,14.10
2022-08-07T06:25:54.313Z,15.50
2022-08-07T06:28:27.739Z,14.40
2022-08-07T06:30:58.226Z,14.10
2022-08-07T06:33:29.796Z,13.30
2022-08-07T06:36:13.194Z,17.90
2022-08-07T06:38:51.656Z,14.70
2022-08-07T06:56:15.280Z,15.00
2022-08-07T07:00:13.311Z,17.50
2022-08-07T07:01:50.611Z,12.90
2022-08-07T07:04:28.499Z,15.30
2022-08-07T07:07:19.469Z,16.70
2022-08-07T07:09:54.112Z,15.20
2022-08-07T07:12:55.379Z,19.80
2022-08-07T07:15:37.643Z,16.90
2022-08-07T07:18:47.043Z,17.10
2022-08-07T07:21:21.636Z,19.50
2022-08-07T07:24:08.642Z,15.40
2022-08-07T07:26:52.169Z,16.80
2022-08-07T07:29:57.247Z,15.40
2022-08-07T07:32:18.588Z,15.70
2022-08-07T07:34:52.264Z,17.90
2022-08-07T07:37:47.343Z,18.70
2022-08-07T07:40:18.582Z,14.10
2022-08-07T07:42:54.126Z,16.20
2022-08-07T07:46:53.302Z,16.70
2022-08-07T07:48:34.769Z,16.80
2022-08-07T07:51:08.453Z,14.20
2022-08-07T07:53:51.905Z,15.30
2022-08-07T07:56:30.193Z,14.60
2022-08-07T07:59:05.884Z,13.70
2022-08-07T08:02:03.732Z,14.30
2022-08-07T08:04:28.357Z,14.50
2022-08-07T08:06:56.388Z,15.10
2022-08-07T08:12:03.682Z,16.20
2022-08-07T08:14:36.254Z,10.90
2022-08-07T08:17:55.654Z,10.60
2022-08-07T08:20:18.119Z,13.70
2022-08-07T08:23:14.389Z,12.00
2022-08-07T08:26:07.242Z,12.30
2022-08-07T08:29:01.615Z,12.70
2022-08-07T08:32:17.511Z,11.10
2022-08-07T08:34:55.585Z,9.60
2022-08-07T08:42:25.728Z,12.10
2022-08-07T08:45:41.573Z,10.60
2022-08-07T08:48:38.486Z,10.50
2022-08-07T08:56:13.717Z,10.40
2022-08-07T08:59:26.211Z,9.30
2022-08-07T09:02:49.585Z,10.70
2022-08-07T09:05:52.965Z,9.90
2022-08-07T09:11:50.550Z,12.70
2022-08-07T09:14:51.629Z,15.10
2022-08-07T09:17:59.425Z,10.60
2022-08-07T09:21:01.077Z,10.80
2022-08-07T09:24:59.112Z,10.50
2022-08-07T09:28:00.538Z,11.20
2022-08-07T09:31:03.466Z,10.40
2022-08-07T09:34:02.897Z,10.00
2022-08-07T09:36:53.725Z,9.10
2022-08-07T09:39:54.474Z,11.00
2022-08-07T09:42:17.311Z,14.10
2022-08-07T09:47:24.754Z,10.20
2022-08-07T09:48:24.778Z,10.60
2022-08-07T09:52:16.073Z,11.60
2022-08-07T09:54:37.718Z,12.10
2022-08-07T09:57:17.388Z,13.00
2022-08-07T10:00:14.876Z,11.10
2022-08-07T10:04:05.964Z,9.80
2022-08-07T10:06:56.980Z,9.50
2022-08-07T10:10:03.515Z,9.40
2022-08-07T10:14:00.571Z,10.30
2022-08-07T10:16:41.535Z,10.70
2022-08-07T10:19:39.140Z,12.70
2022-08-07T10:22:50.979Z,16.70
2022-08-07T10:26:15.695Z,8.50
2022-08-07T10:29:32.247Z,10.20
2022-08-07T10:40:33.536Z,6.60
2022-08-07T12:14:27.032Z,8.20
2022-08-07T12:17:19.854Z,6.70
2022-08-07T12:20:11.425Z,6.70
2022-08-07T12:24:05.537Z,6.40
2022-08-07T12:26:50.720Z,6.00
2022-08-07T12:34:00.722Z,5.70
2022-08-07T12:36:36.329Z,7.20
2022-08-07T12:44:03.401Z,6.70
2022-08-07T12:59:02.875Z,5.10
2022-08-07T13:14:15.810Z,6.90
2022-08-07T13:17:10.916Z,5.90
2022-08-07T13:32:06.215Z,5.20
2022-08-07T13:36:17.793Z,5.30
2022-08-07T13:39:13.136Z,4.90
2022-08-07T13:41:56.492Z,5.80
2022-08-07T14:01:16.276Z,4.70
2022-08-07T14:04:57.981Z,5.10
2022-08-07T14:08:00.489Z,4.70
2022-08-07T14:12:05.747Z,5.10
2022-08-07T14:14:54.152Z,5.90
2022-08-07T14:18:13.030Z,5.10
2022-08-07T14:24:56.341Z,5.10
2022-08-07T14:28:12.598Z,8.10
2022-08-07T14:30:40.559Z,4.20
2022-08-07T14:33:09.222Z,4.60
2022-08-07T14:36:42.095Z,5.70
2022-08-07T14:43:57.075Z,3.70
2022-08-07T14:54:34.548Z,7.50
2022-08-07T14:57:58.614Z,4.00
2022-08-07T15:00:33.002Z,4.60
2022-08-07T15:11:53.270Z,7.20
2022-08-07T15:25:12.747Z,3.30
2022-08-07T15:27:25.840Z,6.10
2022-08-07T15:30:16.096Z,7.20
2022-08-07T15:32:51.127Z,2.80
2022-08-07T15:36:00.493Z,3.70
2022-08-07T15:42:47.819Z,3.70
2022-08-07T15:45:56.290Z,5.50
2022-08-07T15:48:32.334Z,3.70
2022-08-07T15:51:16.650Z,3.00
2022-08-07T15:53:53.650Z,3.50
2022-08-07T16:00:52.920Z,4.70
2022-08-07T16:04:29.851Z,2.10
2022-08-07T16:08:33.089Z,3.20
2022-08-07T16:10:26.803Z,2.70
2022-08-07T16:17:15.141Z,3.00
2022-08-07T16:20:33.393Z,4.20
2022-08-07T16:30:08.533Z,3.50
2022-08-07T16:32:01.399Z,3.00
2022-08-07T16:35:56.790Z,3.70
2022-08-07T16:39:02.178Z,2.90
2022-08-07T17:02:09.817Z,3.90
2022-08-07T17:14:18.266Z,3.20
2022-08-07T17:18:23.312Z,4.80
2022-08-07T17:20:55.864Z,4.10
2022-08-07T17:24:14.367Z,3.80
2022-08-07T17:35:51.679Z,3.20
2022-08-07T17:38:33.193Z,6.20
2022-08-07T17:47:08.475Z,4.10
2022-08-07T17:49:54.339Z,5.50
2022-08-07T17:52:36.986Z,4.80
2022-08-07T17:55:55.046Z,4.70
2022-08-07T17:58:30.765Z,5.50
2022-08-07T18:02:23.359Z,3.70
2022-08-07T18:05:00.570Z,6.40
2022-08-07T18:07:35.204Z,8.90
2022-08-07T18:10:28.623Z,4.60
2022-08-07T18:13:15.287Z,6.70
2022-08-07T18:16:33.457Z,4.10
2022-08-07T18:21:07.142Z,4.60
2022-08-07T18:22:27.920Z,4.70
2022-08-07T18:25:19.421Z,5.50
2022-08-07T18:28:58.206Z,5.20
2022-08-07T18:31:50.215Z,4.20
2022-08-07T18:35:08.583Z,4.70
2022-08-07T18:38:55.560Z,5.90
2022-08-07T18:41:44.951Z,5.60
2022-08-07T18:45:45.075Z,4.40
2022-08-07T18:48:52.169Z,5.00
2022-08-07T18:53:06.633Z,6.80
2022-08-07T18:57:30.353Z,3.70
2022-08-07T19:16:04.666Z,6.00
2022-08-07T20:35:23.296Z,4.80
2022-08-07T20:37:58.670Z,4.50
2022-08-07T20:40:32.493Z,5.70
2022-08-07T20:43:14.518Z,5.30
2022-08-07T20:49:59.586Z,4.70
2022-08-07T20:51:50.914Z,6.10
2022-08-07T20:54:29.259Z,4.30
2022-08-07T20:57:02.771Z,6.00
2022-08-07T21:00:07.502Z,5.60
2022-08-07T21:02:54.190Z,5.90
2022-08-07T21:05:42.968Z,6.00
2022-08-07T21:08:37.190Z,7.00
2022-08-07T21:11:14.445Z,4.70
2022-08-07T21:14:20.058Z,7.00
2022-08-07T21:20:55.955Z,4.40
2022-08-07T21:23:58.561Z,5.30
2022-08-07T21:27:14.541Z,5.80
2022-08-07T21:30:11.733Z,5.80
2022-08-07T21:33:19.954Z,7.30
2022-08-07T21:40:43.891Z,6.50
2022-08-07T21:52:12.064Z,9.20
